Portada
METAR-TAF:

METAR-TAF

Aeroports :

Leh, Índia

latitud: 34-08-09N, longitud: 077-32-47E, altitud: 3256 m

METAR: manca

Hora: 19:35 (14:05 UTC)

Pronòstic

L'informe es va fer fa 10 hores i 35 minuts, a les 03:30 UTC
Pronòstic vàlid del 20 a les 06 UTC al 20 a les 18 UTC
Vent 2 kt amb direcció variable
Visibilitat: 6000 m
Escasses núvols a una alçada de 6000 ft
Núvols disperses a una alçada de 9000 ft
Cel ennuvolat a una alçada de 12000 ft
Evolucionant progressivament
l' 20 a les 09 UTC al 20 a les 12 UTC
Vent 10 kt del Oest/Sud-Oest
Visibilitat: 6000 m
Núvols disperses a una alçada de 5000 ft
Cel ennuvolat a una alçada de 10000 ft
neu

TAF: VILH 200330Z 2006/2018 VRB02KT 6000 SOCC FEW060 SCT090 BKN120 BECMG 2009/2012 25010KT 6000 -SN SCT050 BKN100

Observacions i pronòstics meteorològics de més de 4000 aeroports (METAR i TAF).

Les estacions disponibles són els punts grocs i vermells al mapa.

Posi el ratolí al punt desitjat per veure el nom de l'estació.

Feu clic per veure les observacions i els pronòstics meteorològics.

Per canviar el mapa: feu clic els botons verds amb una creu de color negre per apropar; al botó verd amb un guió per allunyar la imatge; o en les fletxes verdes per a mapes adjacents.


METAR-TAF: